sensor_id;sensor_type;location;lat;lon;timestamp;P1;durP1;ratioP1;P2;durP2;ratioP2
70800;SDS011;59616;52.170;5.386;2023-04-15T00:00:55;9.35;;;4.40;;
70800;SDS011;59616;52.170;5.386;2023-04-15T00:03:22;12.23;;;4.60;;
70800;SDS011;59616;52.170;5.386;2023-04-15T00:05:50;13.15;;;4.97;;
70800;SDS011;59616;52.170;5.386;2023-04-15T00:08:18;11.95;;;4.50;;
70800;SDS011;59616;52.170;5.386;2023-04-15T00:10:45;8.52;;;3.92;;
70800;SDS011;59616;52.170;5.386;2023-04-15T00:13:13;12.35;;;4.60;;
70800;SDS011;59616;52.170;5.386;2023-04-15T00:15:40;9.52;;;4.57;;
70800;SDS011;59616;52.170;5.386;2023-04-15T00:18:08;9.60;;;4.47;;
70800;SDS011;59616;52.170;5.386;2023-04-15T00:20:35;10.13;;;4.55;;
70800;SDS011;59616;52.170;5.386;2023-04-15T00:23:03;12.50;;;5.18;;
70800;SDS011;59616;52.170;5.386;2023-04-15T00:25:30;11.98;;;4.82;;
70800;SDS011;59616;52.170;5.386;2023-04-15T00:27:58;10.43;;;4.72;;
70800;SDS011;59616;52.170;5.386;2023-04-15T00:30:25;12.30;;;4.72;;
70800;SDS011;59616;52.170;5.386;2023-04-15T00:32:52;11.45;;;4.40;;
70800;SDS011;59616;52.170;5.386;2023-04-15T00:35:20;12.38;;;5.43;;
70800;SDS011;59616;52.170;5.386;2023-04-15T00:37:49;11.82;;;4.75;;
70800;SDS011;59616;52.170;5.386;2023-04-15T00:40:17;12.77;;;4.80;;
70800;SDS011;59616;52.170;5.386;2023-04-15T00:42:45;11.50;;;4.97;;
70800;SDS011;59616;52.170;5.386;2023-04-15T00:45:12;13.45;;;4.88;;
70800;SDS011;59616;52.170;5.386;2023-04-15T00:47:40;13.75;;;5.45;;
70800;SDS011;59616;52.170;5.386;2023-04-15T00:50:09;13.50;;;5.32;;
70800;SDS011;59616;52.170;5.386;2023-04-15T00:52:36;11.82;;;4.90;;
70800;SDS011;59616;52.170;5.386;2023-04-15T00:55:04;11.95;;;4.93;;
70800;SDS011;59616;52.170;5.386;2023-04-15T00:57:31;13.77;;;4.78;;
70800;SDS011;59616;52.170;5.386;2023-04-15T00:59:59;10.82;;;4.93;;
70800;SDS011;59616;52.170;5.386;2023-04-15T01:02:26;15.23;;;5.43;;
70800;SDS011;59616;52.170;5.386;2023-04-15T01:04:54;10.85;;;4.72;;
70800;SDS011;59616;52.170;5.386;2023-04-15T01:07:22;12.63;;;4.88;;
70800;SDS011;59616;52.170;5.386;2023-04-15T01:09:49;11.10;;;4.75;;
70800;SDS011;59616;52.170;5.386;2023-04-15T01:12:17;15.18;;;4.95;;
70800;SDS011;59616;52.170;5.386;2023-04-15T01:14:44;12.68;;;5.25;;
70800;SDS011;59616;52.170;5.386;2023-04-15T01:17:11;12.50;;;4.97;;
70800;SDS011;59616;52.170;5.386;2023-04-15T01:19:38;12.10;;;4.60;;
70800;SDS011;59616;52.170;5.386;2023-04-15T01:22:06;10.60;;;4.60;;
70800;SDS011;59616;52.170;5.386;2023-04-15T01:24:36;11.73;;;4.80;;
70800;SDS011;59616;52.170;5.386;2023-04-15T01:27:04;11.30;;;4.68;;
70800;SDS011;59616;52.170;5.386;2023-04-15T01:29:31;11.88;;;5.00;;
70800;SDS011;59616;52.170;5.386;2023-04-15T01:31:58;13.43;;;4.80;;
70800;SDS011;59616;52.170;5.386;2023-04-15T01:34:26;13.85;;;5.00;;
70800;SDS011;59616;52.170;5.386;2023-04-15T01:36:53;9.60;;;4.25;;
70800;SDS011;59616;52.170;5.386;2023-04-15T01:39:20;13.02;;;4.75;;
70800;SDS011;59616;52.170;5.386;2023-04-15T01:41:47;11.55;;;4.53;;
70800;SDS011;59616;52.170;5.386;2023-04-15T01:44:15;11.90;;;4.80;;
70800;SDS011;59616;52.170;5.386;2023-04-15T01:46:42;10.35;;;4.72;;
70800;SDS011;59616;52.170;5.386;2023-04-15T01:49:09;14.82;;;4.68;;
70800;SDS011;59616;52.170;5.386;2023-04-15T01:51:36;11.02;;;4.25;;
70800;SDS011;59616;52.170;5.386;2023-04-15T01:54:04;12.90;;;4.65;;
70800;SDS011;59616;52.170;5.386;2023-04-15T01:56:32;14.25;;;5.07;;
70800;SDS011;59616;52.170;5.386;2023-04-15T01:58:59;11.90;;;4.82;;
70800;SDS011;59616;52.170;5.386;2023-04-15T02:01:27;12.18;;;5.00;;
70800;SDS011;59616;52.170;5.386;2023-04-15T02:03:57;12.75;;;4.30;;
70800;SDS011;59616;52.170;5.386;2023-04-15T02:06:24;10.25;;;4.53;;
70800;SDS011;59616;52.170;5.386;2023-04-15T02:08:54;10.93;;;4.63;;
70800;SDS011;59616;52.170;5.386;2023-04-15T02:11:21;12.50;;;4.93;;
70800;SDS011;59616;52.170;5.386;2023-04-15T02:13:48;12.23;;;4.90;;
70800;SDS011;59616;52.170;5.386;2023-04-15T02:16:17;11.40;;;4.85;;
70800;SDS011;59616;52.170;5.386;2023-04-15T02:18:44;12.32;;;4.57;;
70800;SDS011;59616;52.170;5.386;2023-04-15T02:21:12;11.45;;;4.25;;
70800;SDS011;59616;52.170;5.386;2023-04-15T02:23:39;12.98;;;4.38;;
70800;SDS011;59616;52.170;5.386;2023-04-15T02:26:06;13.65;;;4.88;;
70800;SDS011;59616;52.170;5.386;2023-04-15T02:28:34;10.77;;;4.55;;
70800;SDS011;59616;52.170;5.386;2023-04-15T02:31:04;12.18;;;4.28;;
70800;SDS011;59616;52.170;5.386;2023-04-15T02:33:31;12.02;;;4.25;;
70800;SDS011;59616;52.170;5.386;2023-04-15T02:35:59;11.43;;;4.47;;
70800;SDS011;59616;52.170;5.386;2023-04-15T02:38:27;10.18;;;4.18;;
70800;SDS011;59616;52.170;5.386;2023-04-15T02:40:54;9.05;;;4.10;;
70800;SDS011;59616;52.170;5.386;2023-04-15T02:43:22;13.95;;;4.55;;
70800;SDS011;59616;52.170;5.386;2023-04-15T02:45:50;13.13;;;4.57;;
70800;SDS011;59616;52.170;5.386;2023-04-15T02:48:19;11.75;;;4.60;;
70800;SDS011;59616;52.170;5.386;2023-04-15T02:50:47;10.93;;;4.20;;
70800;SDS011;59616;52.170;5.386;2023-04-15T02:53:15;11.07;;;4.25;;
70800;SDS011;59616;52.170;5.386;2023-04-15T02:55:42;11.40;;;4.57;;
70800;SDS011;59616;52.170;5.386;2023-04-15T02:58:09;12.68;;;4.30;;
70800;SDS011;59616;52.170;5.386;2023-04-15T03:00:37;13.02;;;4.80;;
70800;SDS011;59616;52.170;5.386;2023-04-15T03:03:04;11.32;;;4.20;;
70800;SDS011;59616;52.170;5.386;2023-04-15T03:05:32;13.65;;;4.72;;
70800;SDS011;59616;52.170;5.386;2023-04-15T03:08:02;10.95;;;4.53;;
70800;SDS011;59616;52.170;5.386;2023-04-15T03:10:29;12.20;;;4.75;;
70800;SDS011;59616;52.170;5.386;2023-04-15T03:12:56;11.20;;;4.63;;
70800;SDS011;59616;52.170;5.386;2023-04-15T03:15:24;14.98;;;5.13;;
70800;SDS011;59616;52.170;5.386;2023-04-15T03:17:52;12.00;;;4.60;;
70800;SDS011;59616;52.170;5.386;2023-04-15T03:20:20;12.77;;;4.63;;
70800;SDS011;59616;52.170;5.386;2023-04-15T03:22:47;14.80;;;4.55;;
70800;SDS011;59616;52.170;5.386;2023-04-15T03:25:14;13.32;;;4.32;;
70800;SDS011;59616;52.170;5.386;2023-04-15T03:27:42;14.00;;;4.68;;
70800;SDS011;59616;52.170;5.386;2023-04-15T03:30:10;11.43;;;4.53;;
70800;SDS011;59616;52.170;5.386;2023-04-15T03:32:38;10.02;;;4.90;;
70800;SDS011;59616;52.170;5.386;2023-04-15T03:35:07;11.50;;;4.53;;
70800;SDS011;59616;52.170;5.386;2023-04-15T03:37:34;11.07;;;4.82;;
70800;SDS011;59616;52.170;5.386;2023-04-15T03:40:02;14.38;;;4.93;;
70800;SDS011;59616;52.170;5.386;2023-04-15T03:42:29;11.20;;;4.97;;
70800;SDS011;59616;52.170;5.386;2023-04-15T03:44:56;13.95;;;5.40;;
70800;SDS011;59616;52.170;5.386;2023-04-15T03:47:23;12.18;;;5.10;;
70800;SDS011;59616;52.170;5.386;2023-04-15T03:49:51;11.35;;;4.78;;
70800;SDS011;59616;52.170;5.386;2023-04-15T03:52:18;11.63;;;5.00;;
70800;SDS011;59616;52.170;5.386;2023-04-15T03:54:45;11.60;;;4.70;;
70800;SDS011;59616;52.170;5.386;2023-04-15T03:57:12;11.73;;;4.93;;
70800;SDS011;59616;52.170;5.386;2023-04-15T03:59:39;10.95;;;4.63;;
70800;SDS011;59616;52.170;5.386;2023-04-15T04:02:07;14.80;;;5.40;;
70800;SDS011;59616;52.170;5.386;2023-04-15T04:04:34;11.57;;;5.00;;
70800;SDS011;59616;52.170;5.386;2023-04-15T04:07:01;12.18;;;4.93;;
70800;SDS011;59616;52.170;5.386;2023-04-15T04:09:28;11.43;;;4.85;;
70800;SDS011;59616;52.170;5.386;2023-04-15T04:11:55;12.45;;;4.93;;
70800;SDS011;59616;52.170;5.386;2023-04-15T04:14:23;13.63;;;4.82;;
70800;SDS011;59616;52.170;5.386;2023-04-15T04:16:54;11.05;;;4.88;;
70800;SDS011;59616;52.170;5.386;2023-04-15T04:19:22;15.50;;;4.80;;
70800;SDS011;59616;52.170;5.386;2023-04-15T04:21:50;14.27;;;5.25;;
70800;SDS011;59616;52.170;5.386;2023-04-15T04:24:17;12.63;;;5.28;;
70800;SDS011;59616;52.170;5.386;2023-04-15T04:26:44;14.25;;;5.25;;
70800;SDS011;59616;52.170;5.386;2023-04-15T04:29:11;12.77;;;5.22;;
70800;SDS011;59616;52.170;5.386;2023-04-15T04:31:38;11.80;;;4.68;;
70800;SDS011;59616;52.170;5.386;2023-04-15T04:34:05;14.45;;;5.13;;
70800;SDS011;59616;52.170;5.386;2023-04-15T04:36:32;13.68;;;5.43;;
70800;SDS011;59616;52.170;5.386;2023-04-15T04:39:00;12.32;;;5.03;;
70800;SDS011;59616;52.170;5.386;2023-04-15T04:41:27;11.80;;;5.38;;
70800;SDS011;59616;52.170;5.386;2023-04-15T04:43:54;13.32;;;5.10;;
70800;SDS011;59616;52.170;5.386;2023-04-15T04:46:22;14.20;;;4.55;;
70800;SDS011;59616;52.170;5.386;2023-04-15T04:48:49;12.85;;;4.65;;
70800;SDS011;59616;52.170;5.386;2023-04-15T04:51:16;13.63;;;5.07;;
70800;SDS011;59616;52.170;5.386;2023-04-15T04:53:44;13.88;;;4.93;;
70800;SDS011;59616;52.170;5.386;2023-04-15T04:56:11;14.80;;;5.70;;
70800;SDS011;59616;52.170;5.386;2023-04-15T04:58:38;15.27;;;5.50;;
70800;SDS011;59616;52.170;5.386;2023-04-15T05:01:05;14.05;;;5.55;;
70800;SDS011;59616;52.170;5.386;2023-04-15T05:03:33;13.15;;;5.32;;
70800;SDS011;59616;52.170;5.386;2023-04-15T05:06:00;16.42;;;5.85;;
70800;SDS011;59616;52.170;5.386;2023-04-15T05:08:31;13.70;;;5.55;;
70800;SDS011;59616;52.170;5.386;2023-04-15T05:10:58;13.20;;;4.82;;
70800;SDS011;59616;52.170;5.386;2023-04-15T05:13:25;13.27;;;5.15;;
70800;SDS011;59616;52.170;5.386;2023-04-15T05:15:52;13.65;;;5.32;;
70800;SDS011;59616;52.170;5.386;2023-04-15T05:18:20;16.65;;;5.63;;
70800;SDS011;59616;52.170;5.386;2023-04-15T05:20:47;14.05;;;5.78;;
70800;SDS011;59616;52.170;5.386;2023-04-15T05:23:15;12.48;;;5.10;;
70800;SDS011;59616;52.170;5.386;2023-04-15T05:25:42;13.23;;;5.25;;
70800;SDS011;59616;52.170;5.386;2023-04-15T05:28:10;12.88;;;5.57;;
70800;SDS011;59616;52.170;5.386;2023-04-15T05:30:37;12.30;;;5.72;;
70800;SDS011;59616;52.170;5.386;2023-04-15T05:33:04;13.82;;;5.40;;
70800;SDS011;59616;52.170;5.386;2023-04-15T05:35:31;15.48;;;5.50;;
70800;SDS011;59616;52.170;5.386;2023-04-15T05:37:58;13.02;;;5.55;;
70800;SDS011;59616;52.170;5.386;2023-04-15T05:40:26;14.25;;;4.97;;
70800;SDS011;59616;52.170;5.386;2023-04-15T05:42:53;14.40;;;5.47;;
70800;SDS011;59616;52.170;5.386;2023-04-15T05:45:20;16.95;;;5.75;;
70800;SDS011;59616;52.170;5.386;2023-04-15T05:47:47;16.25;;;5.68;;
70800;SDS011;59616;52.170;5.386;2023-04-15T05:50:19;15.18;;;6.35;;
70800;SDS011;59616;52.170;5.386;2023-04-15T05:52:46;13.40;;;5.35;;
70800;SDS011;59616;52.170;5.386;2023-04-15T05:55:13;12.95;;;5.30;;
70800;SDS011;59616;52.170;5.386;2023-04-15T05:57:41;13.73;;;5.63;;
70800;SDS011;59616;52.170;5.386;2023-04-15T06:00:08;14.65;;;5.97;;
70800;SDS011;59616;52.170;5.386;2023-04-15T06:02:35;14.48;;;5.80;;
70800;SDS011;59616;52.170;5.386;2023-04-15T06:05:03;13.85;;;5.80;;
70800;SDS011;59616;52.170;5.386;2023-04-15T06:07:35;12.98;;;5.57;;
70800;SDS011;59616;52.170;5.386;2023-04-15T06:10:03;15.25;;;5.40;;
70800;SDS011;59616;52.170;5.386;2023-04-15T06:12:30;14.63;;;5.80;;
70800;SDS011;59616;52.170;5.386;2023-04-15T06:14:58;14.27;;;6.25;;
70800;SDS011;59616;52.170;5.386;2023-04-15T06:17:25;18.70;;;6.13;;
70800;SDS011;59616;52.170;5.386;2023-04-15T06:19:53;16.02;;;5.85;;
70800;SDS011;59616;52.170;5.386;2023-04-15T06:22:21;14.55;;;5.97;;
70800;SDS011;59616;52.170;5.386;2023-04-15T06:24:48;17.10;;;5.63;;
70800;SDS011;59616;52.170;5.386;2023-04-15T06:27:16;12.93;;;5.68;;
70800;SDS011;59616;52.170;5.386;2023-04-15T06:29:43;15.35;;;5.95;;
70800;SDS011;59616;52.170;5.386;2023-04-15T06:32:11;14.20;;;6.07;;
70800;SDS011;59616;52.170;5.386;2023-04-15T06:34:38;14.07;;;6.18;;
70800;SDS011;59616;52.170;5.386;2023-04-15T06:37:05;13.00;;;5.80;;
70800;SDS011;59616;52.170;5.386;2023-04-15T06:39:35;13.43;;;6.35;;
70800;SDS011;59616;52.170;5.386;2023-04-15T06:42:02;14.55;;;6.22;;
70800;SDS011;59616;52.170;5.386;2023-04-15T06:44:30;13.70;;;5.72;;
70800;SDS011;59616;52.170;5.386;2023-04-15T06:46:59;16.67;;;6.63;;
70800;SDS011;59616;52.170;5.386;2023-04-15T06:49:26;16.50;;;6.40;;
70800;SDS011;59616;52.170;5.386;2023-04-15T06:51:53;16.23;;;6.82;;
70800;SDS011;59616;52.170;5.386;2023-04-15T06:54:20;15.52;;;6.22;;
70800;SDS011;59616;52.170;5.386;2023-04-15T06:56:48;16.67;;;6.75;;
70800;SDS011;59616;52.170;5.386;2023-04-15T06:59:15;14.57;;;5.70;;
70800;SDS011;59616;52.170;5.386;2023-04-15T07:01:42;14.32;;;6.13;;
70800;SDS011;59616;52.170;5.386;2023-04-15T07:04:09;15.50;;;5.95;;
70800;SDS011;59616;52.170;5.386;2023-04-15T07:06:37;14.00;;;6.28;;
70800;SDS011;59616;52.170;5.386;2023-04-15T07:09:04;16.30;;;6.40;;
70800;SDS011;59616;52.170;5.386;2023-04-15T07:11:32;17.50;;;6.75;;
70800;SDS011;59616;52.170;5.386;2023-04-15T07:13:59;14.40;;;5.80;;
70800;SDS011;59616;52.170;5.386;2023-04-15T07:16:26;14.55;;;5.88;;
70800;SDS011;59616;52.170;5.386;2023-04-15T07:18:55;14.98;;;6.05;;
70800;SDS011;59616;52.170;5.386;2023-04-15T07:21:22;15.07;;;5.93;;
70800;SDS011;59616;52.170;5.386;2023-04-15T07:23:50;15.73;;;6.10;;
70800;SDS011;59616;52.170;5.386;2023-04-15T07:26:17;12.85;;;5.55;;
70800;SDS011;59616;52.170;5.386;2023-04-15T07:28:44;14.00;;;6.05;;
70800;SDS011;59616;52.170;5.386;2023-04-15T07:31:12;15.05;;;5.70;;
70800;SDS011;59616;52.170;5.386;2023-04-15T07:33:40;14.75;;;5.30;;
70800;SDS011;59616;52.170;5.386;2023-04-15T07:36:08;14.07;;;5.47;;
70800;SDS011;59616;52.170;5.386;2023-04-15T07:38:35;14.25;;;5.57;;
70800;SDS011;59616;52.170;5.386;2023-04-15T07:41:03;13.13;;;5.20;;
70800;SDS011;59616;52.170;5.386;2023-04-15T07:43:30;13.45;;;5.10;;
70800;SDS011;59616;52.170;5.386;2023-04-15T07:45:57;12.55;;;5.15;;
70800;SDS011;59616;52.170;5.386;2023-04-15T07:48:25;12.48;;;5.18;;
70800;SDS011;59616;52.170;5.386;2023-04-15T07:50:52;12.95;;;4.60;;
70800;SDS011;59616;52.170;5.386;2023-04-15T07:53:19;11.43;;;4.47;;
70800;SDS011;59616;52.170;5.386;2023-04-15T07:55:46;14.02;;;5.22;;
70800;SDS011;59616;52.170;5.386;2023-04-15T07:58:13;11.77;;;5.03;;
70800;SDS011;59616;52.170;5.386;2023-04-15T08:00:40;13.30;;;5.18;;
70800;SDS011;59616;52.170;5.386;2023-04-15T08:03:07;13.55;;;5.00;;
70800;SDS011;59616;52.170;5.386;2023-04-15T08:05:35;13.38;;;5.25;;
70800;SDS011;59616;52.170;5.386;2023-04-15T08:08:02;12.52;;;4.60;;
70800;SDS011;59616;52.170;5.386;2023-04-15T08:10:30;13.60;;;4.80;;
70800;SDS011;59616;52.170;5.386;2023-04-15T08:12:57;11.90;;;4.95;;
70800;SDS011;59616;52.170;5.386;2023-04-15T08:15:24;13.32;;;4.63;;
70800;SDS011;59616;52.170;5.386;2023-04-15T08:17:52;12.50;;;4.43;;
70800;SDS011;59616;52.170;5.386;2023-04-15T08:20:19;11.55;;;4.20;;
70800;SDS011;59616;52.170;5.386;2023-04-15T08:22:46;10.57;;;4.25;;
70800;SDS011;59616;52.170;5.386;2023-04-15T08:25:17;9.25;;;3.50;;
70800;SDS011;59616;52.170;5.386;2023-04-15T08:27:45;10.60;;;4.13;;
70800;SDS011;59616;52.170;5.386;2023-04-15T08:30:12;9.77;;;4.00;;
70800;SDS011;59616;52.170;5.386;2023-04-15T08:32:41;10.10;;;3.28;;
70800;SDS011;59616;52.170;5.386;2023-04-15T08:35:08;8.57;;;3.45;;
70800;SDS011;59616;52.170;5.386;2023-04-15T08:37:35;8.70;;;3.30;;
70800;SDS011;59616;52.170;5.386;2023-04-15T08:40:02;10.35;;;3.58;;
70800;SDS011;59616;52.170;5.386;2023-04-15T08:42:30;10.57;;;3.92;;
70800;SDS011;59616;52.170;5.386;2023-04-15T08:44:58;9.70;;;3.78;;
70800;SDS011;59616;52.170;5.386;2023-04-15T08:47:29;12.43;;;4.20;;
70800;SDS011;59616;52.170;5.386;2023-04-15T08:49:59;12.93;;;4.15;;
70800;SDS011;59616;52.170;5.386;2023-04-15T08:52:29;10.55;;;4.13;;
70800;SDS011;59616;52.170;5.386;2023-04-15T08:54:57;11.55;;;3.85;;
70800;SDS011;59616;52.170;5.386;2023-04-15T08:57:27;10.30;;;3.50;;
70800;SDS011;59616;52.170;5.386;2023-04-15T08:59:57;9.52;;;3.63;;
70800;SDS011;59616;52.170;5.386;2023-04-15T09:02:24;9.80;;;3.55;;
70800;SDS011;59616;52.170;5.386;2023-04-15T09:04:52;8.02;;;3.15;;
70800;SDS011;59616;52.170;5.386;2023-04-15T09:07:20;9.68;;;3.50;;
70800;SDS011;59616;52.170;5.386;2023-04-15T09:09:47;8.85;;;3.75;;
70800;SDS011;59616;52.170;5.386;2023-04-15T09:12:15;10.88;;;3.80;;
70800;SDS011;59616;52.170;5.386;2023-04-15T09:14:44;8.68;;;3.05;;
70800;SDS011;59616;52.170;5.386;2023-04-15T09:17:12;8.45;;;3.25;;
70800;SDS011;59616;52.170;5.386;2023-04-15T09:19:39;8.02;;;2.75;;
70800;SDS011;59616;52.170;5.386;2023-04-15T09:22:06;8.13;;;2.65;;
70800;SDS011;59616;52.170;5.386;2023-04-15T09:24:35;8.23;;;3.05;;
70800;SDS011;59616;52.170;5.386;2023-04-15T09:27:03;7.50;;;2.70;;
70800;SDS011;59616;52.170;5.386;2023-04-15T09:29:30;7.43;;;2.70;;
70800;SDS011;59616;52.170;5.386;2023-04-15T09:32:08;8.50;;;3.05;;
70800;SDS011;59616;52.170;5.386;2023-04-15T09:34:35;10.63;;;3.35;;
70800;SDS011;59616;52.170;5.386;2023-04-15T09:37:03;8.27;;;3.03;;
70800;SDS011;59616;52.170;5.386;2023-04-15T09:39:46;8.30;;;3.17;;
70800;SDS011;59616;52.170;5.386;2023-04-15T09:42:13;9.25;;;3.20;;
70800;SDS011;59616;52.170;5.386;2023-04-15T09:44:42;8.57;;;3.38;;
70800;SDS011;59616;52.170;5.386;2023-04-15T09:47:13;10.23;;;3.40;;
70800;SDS011;59616;52.170;5.386;2023-04-15T09:49:56;9.80;;;3.33;;
70800;SDS011;59616;52.170;5.386;2023-04-15T09:52:23;9.45;;;3.05;;
70800;SDS011;59616;52.170;5.386;2023-04-15T09:54:55;11.13;;;3.92;;
70800;SDS011;59616;52.170;5.386;2023-04-15T09:57:23;8.88;;;3.42;;
70800;SDS011;59616;52.170;5.386;2023-04-15T09:59:50;9.20;;;3.53;;
70800;SDS011;59616;52.170;5.386;2023-04-15T10:02:18;9.15;;;3.70;;
70800;SDS011;59616;52.170;5.386;2023-04-15T10:04:48;9.80;;;3.22;;
70800;SDS011;59616;52.170;5.386;2023-04-15T10:07:16;8.93;;;3.20;;
70800;SDS011;59616;52.170;5.386;2023-04-15T10:09:45;7.95;;;2.97;;
70800;SDS011;59616;52.170;5.386;2023-04-15T10:12:17;9.20;;;2.50;;
70800;SDS011;59616;52.170;5.386;2023-04-15T10:14:47;6.65;;;2.47;;
70800;SDS011;59616;52.170;5.386;2023-04-15T10:17:15;8.35;;;2.25;;
70800;SDS011;59616;52.170;5.386;2023-04-15T10:19:43;6.80;;;2.38;;
70800;SDS011;59616;52.170;5.386;2023-04-15T10:22:10;11.40;;;2.88;;
70800;SDS011;59616;52.170;5.386;2023-04-15T10:24:38;5.85;;;2.13;;
70800;SDS011;59616;52.170;5.386;2023-04-15T10:27:06;8.18;;;2.88;;
70800;SDS011;59616;52.170;5.386;2023-04-15T10:29:33;8.00;;;3.00;;
70800;SDS011;59616;52.170;5.386;2023-04-15T10:32:00;7.97;;;3.00;;
70800;SDS011;59616;52.170;5.386;2023-04-15T10:34:27;9.30;;;3.10;;
70800;SDS011;59616;52.170;5.386;2023-04-15T10:36:56;7.25;;;2.83;;
70800;SDS011;59616;52.170;5.386;2023-04-15T10:42:18;8.52;;;2.30;;
70800;SDS011;59616;52.170;5.386;2023-04-15T10:44:49;5.72;;;2.15;;
70800;SDS011;59616;52.170;5.386;2023-04-15T10:47:19;7.55;;;2.35;;
70800;SDS011;59616;52.170;5.386;2023-04-15T10:52:15;6.65;;;2.45;;
70800;SDS011;59616;52.170;5.386;2023-04-15T10:54:43;8.10;;;2.60;;
70800;SDS011;59616;52.170;5.386;2023-04-15T10:57:14;6.07;;;2.03;;
70800;SDS011;59616;52.170;5.386;2023-04-15T11:05:10;5.80;;;2.13;;
70800;SDS011;59616;52.170;5.386;2023-04-15T11:07:48;5.00;;;1.85;;
70800;SDS011;59616;52.170;5.386;2023-04-15T11:17:56;12.60;;;2.72;;
70800;SDS011;59616;52.170;5.386;2023-04-15T11:20:24;8.88;;;2.45;;
70800;SDS011;59616;52.170;5.386;2023-04-15T11:22:54;6.85;;;2.50;;
70800;SDS011;59616;52.170;5.386;2023-04-15T11:25:41;5.10;;;1.92;;
70800;SDS011;59616;52.170;5.386;2023-04-15T11:28:09;6.32;;;2.30;;
70800;SDS011;59616;52.170;5.386;2023-04-15T11:30:37;5.95;;;2.17;;
70800;SDS011;59616;52.170;5.386;2023-04-15T11:33:05;6.97;;;2.50;;
70800;SDS011;59616;52.170;5.386;2023-04-15T11:35:33;5.57;;;2.20;;
70800;SDS011;59616;52.170;5.386;2023-04-15T11:38:04;6.22;;;2.20;;
70800;SDS011;59616;52.170;5.386;2023-04-15T11:40:31;6.75;;;2.30;;
70800;SDS011;59616;52.170;5.386;2023-04-15T11:43:08;5.40;;;2.20;;
70800;SDS011;59616;52.170;5.386;2023-04-15T11:45:36;6.20;;;2.10;;
70800;SDS011;59616;52.170;5.386;2023-04-15T11:48:07;6.60;;;2.28;;
70800;SDS011;59616;52.170;5.386;2023-04-15T11:50:36;7.55;;;2.25;;
70800;SDS011;59616;52.170;5.386;2023-04-15T11:53:09;6.25;;;1.90;;
70800;SDS011;59616;52.170;5.386;2023-04-15T11:55:45;7.68;;;2.35;;
70800;SDS011;59616;52.170;5.386;2023-04-15T11:58:19;7.13;;;2.15;;
70800;SDS011;59616;52.170;5.386;2023-04-15T12:00:54;5.85;;;2.42;;
70800;SDS011;59616;52.170;5.386;2023-04-15T12:03:22;6.50;;;2.20;;
70800;SDS011;59616;52.170;5.386;2023-04-15T12:12:00;7.63;;;2.00;;
70800;SDS011;59616;52.170;5.386;2023-04-15T12:16:29;5.55;;;1.65;;
70800;SDS011;59616;52.170;5.386;2023-04-15T12:18:57;6.95;;;1.50;;
70800;SDS011;59616;52.170;5.386;2023-04-15T12:21:25;4.35;;;1.60;;
70800;SDS011;59616;52.170;5.386;2023-04-15T12:23:53;5.85;;;1.70;;
70800;SDS011;59616;52.170;5.386;2023-04-15T12:26:28;6.22;;;1.92;;
70800;SDS011;59616;52.170;5.386;2023-04-15T12:28:59;3.95;;;1.65;;
70800;SDS011;59616;52.170;5.386;2023-04-15T12:31:27;6.68;;;2.00;;
70800;SDS011;59616;52.170;5.386;2023-04-15T12:33:54;3.80;;;1.42;;
70800;SDS011;59616;52.170;5.386;2023-04-15T12:36:22;5.50;;;1.83;;
70800;SDS011;59616;52.170;5.386;2023-04-15T12:38:49;5.60;;;2.00;;
70800;SDS011;59616;52.170;5.386;2023-04-15T12:41:16;7.07;;;1.80;;
70800;SDS011;59616;52.170;5.386;2023-04-15T12:43:43;6.60;;;2.33;;
70800;SDS011;59616;52.170;5.386;2023-04-15T12:46:13;5.53;;;1.65;;
70800;SDS011;59616;52.170;5.386;2023-04-15T12:48:41;4.88;;;1.70;;
70800;SDS011;59616;52.170;5.386;2023-04-15T12:51:08;5.00;;;1.50;;
70800;SDS011;59616;52.170;5.386;2023-04-15T12:53:35;5.25;;;1.70;;
70800;SDS011;59616;52.170;5.386;2023-04-15T12:56:02;5.57;;;1.60;;
70800;SDS011;59616;52.170;5.386;2023-04-15T12:58:29;4.57;;;1.70;;
70800;SDS011;59616;52.170;5.386;2023-04-15T13:00:56;4.38;;;1.77;;
70800;SDS011;59616;52.170;5.386;2023-04-15T13:03:24;6.80;;;1.95;;
70800;SDS011;59616;52.170;5.386;2023-04-15T13:05:51;4.80;;;1.70;;
70800;SDS011;59616;52.170;5.386;2023-04-15T13:08:18;7.95;;;2.00;;
70800;SDS011;59616;52.170;5.386;2023-04-15T13:10:46;7.55;;;2.00;;
70800;SDS011;59616;52.170;5.386;2023-04-15T13:13:13;6.88;;;1.80;;
70800;SDS011;59616;52.170;5.386;2023-04-15T13:15:40;6.85;;;1.85;;
70800;SDS011;59616;52.170;5.386;2023-04-15T13:18:10;3.95;;;1.60;;
70800;SDS011;59616;52.170;5.386;2023-04-15T13:20:38;5.07;;;1.70;;
70800;SDS011;59616;52.170;5.386;2023-04-15T13:23:05;5.70;;;1.80;;
70800;SDS011;59616;52.170;5.386;2023-04-15T13:25:33;5.65;;;1.80;;
70800;SDS011;59616;52.170;5.386;2023-04-15T13:28:00;6.13;;;1.70;;
70800;SDS011;59616;52.170;5.386;2023-04-15T13:30:28;6.07;;;1.60;;
70800;SDS011;59616;52.170;5.386;2023-04-15T13:32:56;4.93;;;1.70;;
70800;SDS011;59616;52.170;5.386;2023-04-15T13:35:23;6.43;;;1.83;;
70800;SDS011;59616;52.170;5.386;2023-04-15T13:37:52;5.93;;;1.73;;
70800;SDS011;59616;52.170;5.386;2023-04-15T13:40:20;4.60;;;1.55;;
70800;SDS011;59616;52.170;5.386;2023-04-15T13:42:47;5.68;;;1.65;;
70800;SDS011;59616;52.170;5.386;2023-04-15T13:45:14;6.75;;;2.30;;
70800;SDS011;59616;52.170;5.386;2023-04-15T13:47:41;4.47;;;1.55;;
70800;SDS011;59616;52.170;5.386;2023-04-15T13:50:08;4.07;;;1.30;;
70800;SDS011;59616;52.170;5.386;2023-04-15T13:52:36;5.43;;;1.50;;
70800;SDS011;59616;52.170;5.386;2023-04-15T13:55:03;4.28;;;1.35;;
70800;SDS011;59616;52.170;5.386;2023-04-15T13:57:45;5.90;;;1.70;;
70800;SDS011;59616;52.170;5.386;2023-04-15T14:00:13;4.18;;;1.45;;
70800;SDS011;59616;52.170;5.386;2023-04-15T14:02:40;4.95;;;1.17;;
70800;SDS011;59616;52.170;5.386;2023-04-15T14:05:09;3.75;;;1.17;;
70800;SDS011;59616;52.170;5.386;2023-04-15T14:07:36;5.57;;;1.42;;
70800;SDS011;59616;52.170;5.386;2023-04-15T14:10:03;3.55;;;1.30;;
70800;SDS011;59616;52.170;5.386;2023-04-15T14:12:30;6.25;;;1.30;;
70800;SDS011;59616;52.170;5.386;2023-04-15T14:14:58;6.35;;;1.60;;
70800;SDS011;59616;52.170;5.386;2023-04-15T14:17:25;4.35;;;1.30;;
70800;SDS011;59616;52.170;5.386;2023-04-15T14:19:52;4.43;;;1.73;;
70800;SDS011;59616;52.170;5.386;2023-04-15T14:22:20;4.97;;;1.73;;
70800;SDS011;59616;52.170;5.386;2023-04-15T14:24:47;5.70;;;1.80;;
70800;SDS011;59616;52.170;5.386;2023-04-15T14:27:14;4.72;;;1.48;;
70800;SDS011;59616;52.170;5.386;2023-04-15T14:29:41;3.30;;;1.20;;
70800;SDS011;59616;52.170;5.386;2023-04-15T14:32:09;4.88;;;1.63;;
70800;SDS011;59616;52.170;5.386;2023-04-15T14:34:38;3.38;;;1.40;;
70800;SDS011;59616;52.170;5.386;2023-04-15T14:37:05;5.85;;;1.90;;
70800;SDS011;59616;52.170;5.386;2023-04-15T14:39:32;4.90;;;1.50;;
70800;SDS011;59616;52.170;5.386;2023-04-15T14:41:59;4.22;;;1.13;;
70800;SDS011;59616;52.170;5.386;2023-04-15T14:44:26;5.90;;;1.23;;
70800;SDS011;59616;52.170;5.386;2023-04-15T14:46:54;4.93;;;1.67;;
70800;SDS011;59616;52.170;5.386;2023-04-15T14:49:21;4.95;;;1.33;;
70800;SDS011;59616;52.170;5.386;2023-04-15T14:51:49;6.00;;;0.98;;
70800;SDS011;59616;52.170;5.386;2023-04-15T14:54:16;5.55;;;1.55;;
70800;SDS011;59616;52.170;5.386;2023-04-15T14:56:46;5.25;;;1.30;;
70800;SDS011;59616;52.170;5.386;2023-04-15T14:59:13;7.20;;;1.40;;
70800;SDS011;59616;52.170;5.386;2023-04-15T15:01:40;6.47;;;1.25;;
70800;SDS011;59616;52.170;5.386;2023-04-15T15:04:08;4.38;;;1.15;;
70800;SDS011;59616;52.170;5.386;2023-04-15T15:06:36;4.82;;;1.20;;
70800;SDS011;59616;52.170;5.386;2023-04-15T15:09:03;8.32;;;1.40;;
70800;SDS011;59616;52.170;5.386;2023-04-15T15:11:31;5.80;;;1.45;;